Latest Weather Observations for Busselton Jetty

IDW60801

Issued at 10:32 am WST Thursday 5 May 2016 (issued every 30 minutes, with the page automatically refreshed every 10 minutes)

About weather observations | Map of weather stations | Latest weather observations for WA | Other Formats
Station Details ID: 009937 Name: BUSSELTON JETTY Lat: -33.63 Lon: 115.34 Height: 3.0 m
Data from the previous 72 hours. | See also: Recent months at Busselton Jetty
Date/Time
WST
Temp
°C
App
Temp
°C
Dew
Point
Rel
Hum
%
Delta-T
°C
Wind Press
QNH
hPa
Press
MSL
hPa
Rain
since 9 am
mm
Dir
 
Spd
km/h
Gust
km/h
Spd
kts
Gust
kts
05/10:30am - - - - - SSW 22 28 12 15 - - -
05/10:00am - - - - - SSW 22 26 12 14 - - -
05/09:30am - - - - - SSW 15 19 8 10 - - -
05/09:00am - - - - - SSW 11 13 6 7 - - -
05/08:30am - - - - - S 7 9 4 5 - - -
05/08:00am - - - - - S 9 9 5 5 - - -
05/07:30am - - - - - S 7 9 4 5 - - -
05/07:00am - - - - - SSW 11 13 6 7 - - -
05/06:30am - - - - - S 7 9 4 5 - - -
05/06:00am - - - - - SSW 7 9 4 5 - - -
05/05:30am - - - - - SSW 7 9 4 5 - - -
05/05:00am - - - - - S 6 9 3 5 - - -
05/04:30am - - - - - S 9 11 5 6 - - -
05/04:00am - - - - - SW 20 26 11 14 - - -
05/03:30am - - - - - SW 7 11 4 6 - - -
05/03:00am - - - - - WSW 9 11 5 6 - - -
05/02:30am - - - - - SW 9 11 5 6 - - -
05/02:00am - - - - - SW 9 11 5 6 - - -
05/01:30am - - - - - SW 11 13 6 7 - - -
05/01:00am - - - - - WSW 13 15 7 8 - - -
05/12:30am - - - - - WSW 17 22 9 12 - - -
05/12:00am - - - - - W 13 17 7 9 - - -
 
Date/Time
WST
Temp
°C
App
Temp
°C
Dew
Point
Rel
Hum
%
Delta-T
°C
Wind Press
QNH
hPa
Press
MSL
hPa
Rain
since 9 am
mm
Dir
 
Spd
km/h
Gust
km/h
Spd
kts
Gust
kts
04/11:30pm - - - - - SW 9 13 5 7 - - -
04/11:00pm - - - - - SW 13 15 7 8 - - -
04/10:30pm - - - - - SW 15 19 8 10 - - -
04/10:00pm - - - - - WSW 15 17 8 9 - - -
04/09:30pm - - - - - WSW 19 22 10 12 - - -
04/09:00pm - - - - - WSW 19 22 10 12 - - -
04/08:30pm - - - - - WSW 22 28 12 15 - - -
04/08:00pm - - - - - W 22 26 12 14 - - -
04/07:30pm - - - - - W 26 30 14 16 - - -
04/07:00pm - - - - - W 26 30 14 16 - - -
04/06:30pm - - - - - W 28 32 15 17 - - -
04/06:00pm - - - - - WSW 24 28 13 15 - - -
04/05:30pm - - - - - WSW 30 35 16 19 - - -
04/05:00pm - - - - - WSW 35 39 19 21 - - -
04/04:30pm - - - - - W 30 35 16 19 - - -
04/04:00pm - - - - - W 32 35 17 19 - - -
04/03:30pm - - - - - W 20 26 11 14 - - -
04/03:00pm - - - - - W 30 37 16 20 - - -
04/02:30pm - - - - - W 32 37 17 20 - - -
04/02:00pm - - - - - W 39 46 21 25 - - -
04/01:51pm - - - - - W 35 46 19 25 - - -
04/01:30pm - - - - - NW 19 24 10 13 - - -
04/01:00pm - - - - - NW 22 28 12 15 - - -
04/12:30pm - - - - - NW 22 28 12 15 - - -
04/12:00pm - - - - - NW 28 30 15 16 - - -
04/11:30am - - - - - W 28 33 15 18 - - -
04/11:00am - - - - - WNW 22 28 12 15 - - -
04/10:30am - - - - - W 30 35 16 19 - - -
04/10:00am - - - - - WNW 22 26 12 14 - - -
04/09:30am - - - - - NW 9 13 5 7 - - -
04/09:00am - - - - - NE 6 7 3 4 - - -
04/08:30am - - - - - S 9 9 5 5 - - -
04/08:00am - - - - - SSE 7 9 4 5 - - -
04/07:30am - - - - - SSE 9 11 5 6 - - -
04/07:00am - - - - - SE 9 11 5 6 - - -
04/06:30am - - - - - SE 9 11 5 6 - - -
04/06:00am - - - - - ENE 9 11 5 6 - - -
04/05:30am - - - - - ESE 9 11 5 6 - - -
04/05:00am - - - - - E 9 11 5 6 - - -
04/04:30am - - - - - E 9 11 5 6 - - -
04/04:00am - - - - - ESE 11 13 6 7 - - -
04/03:30am - - - - - SE 11 13 6 7 - - -
04/03:00am - - - - - ESE 9 11 5 6 - - -
04/02:30am - - - - - ESE 9 9 5 5 - - -
04/02:00am - - - - - SE 11 13 6 7 - - -
04/01:30am - - - - - ENE 9 11 5 6 - - -
04/01:00am - - - - - ENE 7 9 4 5 - - -
04/12:30am - - - - - CALM 0 0 0 0 - - -
04/12:00am - - - - - ENE 7 7 4 4 - - -
 
Date/Time
WST
Temp
°C
App
Temp
°C
Dew
Point
Rel
Hum
%
Delta-T
°C
Wind Press
QNH
hPa
Press
MSL
hPa
Rain
since 9 am
mm
Dir
 
Spd
km/h
Gust
km/h
Spd
kts
Gust
kts
03/11:30pm - - - - - SSE 6 7 3 4 - - -
03/11:00pm - - - - - WSW 6 7 3 4 - - -
03/10:30pm - - - - - SSW 7 9 4 5 - - -
03/10:00pm - - - - - SSW 11 11 6 6 - - -
03/09:30pm - - - - - SW 9 9 5 5 - - -
03/09:00pm - - - - - SSW 7 9 4 5 - - -
03/08:30pm - - - - - SSW 9 11 5 6 - - -
03/08:00pm - - - - - SW 9 11 5 6 - - -
03/07:30pm - - - - - SW 13 15 7 8 - - -
03/07:00pm - - - - - SW 13 15 7 8 - - -
03/06:30pm - - - - - WSW 17 20 9 11 - - -
03/06:00pm - - - - - WSW 19 24 10 13 - - -
03/05:30pm - - - - - WSW 22 26 12 14 - - -
03/05:00pm - - - - - WSW 24 28 13 15 - - -
03/04:30pm - - - - - W 20 26 11 14 - - -
03/04:00pm - - - - - WNW 13 15 7 8 - - -
03/03:30pm - - - - - NNW 17 20 9 11 - - -
03/03:00pm - - - - - NNW 19 22 10 12 - - -
03/02:30pm - - - - - NNW 19 22 10 12 - - -
03/02:00pm - - - - - NNW 19 20 10 11 - - -
03/01:30pm - - - - - NNW 17 19 9 10 - - -
03/01:00pm - - - - - NNW 15 17 8 9 - - -
03/12:30pm - - - - - N 11 13 6 7 - - -
03/12:00pm - - - - - NNW 7 9 4 5 - - -
03/11:30am - - - - - NNW 6 7 3 4 - - -
03/11:00am - - - - - WSW 7 11 4 6 - - -
03/10:30am - - - - - SSW 7 13 4 7 - - -
03/10:00am - - - - - S 11 15 6 8 - - -
03/09:30am - - - - - S 9 13 5 7 - - -
03/09:00am - - - - - SSW 11 13 6 7 - - -
03/08:30am - - - - - SW 11 13 6 7 - - -
03/08:00am - - - - - SSW 13 15 7 8 - - -
03/07:30am - - - - - SW 13 15 7 8 - - -
03/07:00am - - - - - SW 13 15 7 8 - - -
03/06:30am - - - - - SW 13 17 7 9 - - -
03/06:00am - - - - - SSW 17 20 9 11 - - -
03/05:30am - - - - - SSE 9 11 5 6 - - -
03/05:00am - - - - - S 11 13 6 7 - - -
03/04:30am - - - - - S 19 20 10 11 - - -
03/04:00am - - - - - SSW 9 11 5 6 - - -
03/03:30am - - - - - SW 9 11 5 6 - - -
03/03:00am - - - - - SSW 9 11 5 6 - - -
03/02:30am - - - - - SW 11 13 6 7 - - -
03/02:00am - - - - - SW 9 11 5 6 - - -
03/01:30am - - - - - SSW 11 13 6 7 - - -
03/01:00am - - - - - SW 11 13 6 7 - - -
03/12:30am - - - - - SSW 13 15 7 8 - - -
03/12:00am - - - - - SSW 13 15 7 8 - - -
 
Date/Time
WST
Temp
°C
App
Temp
°C
Dew
Point
Rel
Hum
%
Delta-T
°C
Wind Press
QNH
hPa
Press
MSL
hPa
Rain
since 9 am
mm
Dir
 
Spd
km/h
Gust
km/h
Spd
kts
Gust
kts
02/11:30pm - - - - - S 13 15 7 8 - - -
02/11:00pm - - - - - S 11 13 6 7 - - -
02/10:30pm - - - - - S 13 15 7 8 - - -
02/10:00pm - - - - - S 13 15 7 8 - - -
02/09:30pm - - - - - SSW 13 15 7 8 - - -
02/09:00pm - - - - - SW 11 13 6 7 - - -
02/08:30pm - - - - - SW 11 15 6 8 - - -
02/08:00pm - - - - - SW 11 13 6 7 - - -
02/07:30pm - - - - - SW 15 19 8 10 - - -
02/07:00pm - - - - - SW 17 20 9 11 - - -
02/06:30pm - - - - - SW 19 20 10 11 - - -
02/06:00pm - - - - - SW 15 17 8 9 - - -
02/05:30pm - - - - - SSW 19 24 10 13 - - -
02/05:00pm - - - - - SW 26 32 14 17 - - -
02/04:30pm - - - - - SW 22 28 12 15 - - -
02/04:00pm - - - - - WSW 30 33 16 18 - - -
02/03:30pm - - - - - WSW 28 33 15 18 - - -
02/03:00pm - - - - - WSW 24 28 13 15 - - -
02/02:30pm - - - - - W 24 28 13 15 - - -
02/02:00pm - - - - - WSW 19 20 10 11 - - -
02/01:30pm - - - - - WSW 15 20 8 11 - - -
02/01:00pm - - - - - WSW 15 17 8 9 - - -
02/12:30pm - - - - - SW 20 28 11 15 - - -
02/12:00pm - - - - - WSW 28 33 15 18 - - -
02/11:30am - - - - - WSW 28 32 15 17 - - -
02/11:00am - - - - - W 13 30 7 16 - - -

Other Formats:

Comma delimited format used in spreadsheet applications
http://www.bom.gov.au/fwo/IDW60801/IDW60801.95602.axf

JavaScript Object Notation format (JSON) in row-major order
http://www.bom.gov.au/fwo/IDW60801/IDW60801.95602.json